createdAt,value
2023-02-15T00:01:53.074Z,18.35
2023-02-15T00:04:22.397Z,18.40
2023-02-15T00:06:49.858Z,18.70
2023-02-15T00:09:16.884Z,19.50
2023-02-15T00:11:46.102Z,17.23
2023-02-15T00:14:20.248Z,17.13
2023-02-15T00:19:16.741Z,17.08
2023-02-15T00:21:44.368Z,18.48
2023-02-15T00:24:13.867Z,17.70
2023-02-15T00:26:42.489Z,18.70
2023-02-15T00:29:10.341Z,18.95
2023-02-15T00:31:38.086Z,18.40
2023-02-15T00:34:07.015Z,18.52
2023-02-15T00:36:34.147Z,18.08
2023-02-15T00:39:01.157Z,18.65
2023-02-15T00:41:28.263Z,17.15
2023-02-15T00:43:55.250Z,18.23
2023-02-15T00:46:22.426Z,18.90
2023-02-15T00:48:49.912Z,18.75
2023-02-15T00:51:18.339Z,18.35
2023-02-15T00:53:45.560Z,19.58
2023-02-15T00:56:12.860Z,17.83
2023-02-15T00:58:39.977Z,17.48
2023-02-15T01:01:10.479Z,18.92
2023-02-15T01:03:37.775Z,18.63
2023-02-15T01:06:05.840Z,18.42
2023-02-15T01:08:33.133Z,17.83
2023-02-15T01:11:06.352Z,18.13
2023-02-15T01:13:33.714Z,18.10
2023-02-15T01:16:01.173Z,17.50
2023-02-15T01:18:28.598Z,17.83
2023-02-15T01:20:57.380Z,19.05
2023-02-15T01:23:24.814Z,18.05
2023-02-15T01:25:51.911Z,18.40
2023-02-15T01:28:19.039Z,18.80
2023-02-15T01:30:46.157Z,19.55
2023-02-15T01:33:19.015Z,18.95
2023-02-15T01:35:47.300Z,17.90
2023-02-15T01:38:15.632Z,18.73
2023-02-15T01:40:43.147Z,17.25
2023-02-15T01:43:13.733Z,19.73
2023-02-15T01:45:41.290Z,18.35
2023-02-15T01:48:22.191Z,18.20
2023-02-15T01:50:57.175Z,18.27
2023-02-15T01:53:31.158Z,19.08
2023-02-15T01:56:10.342Z,18.20
2023-02-15T01:58:38.318Z,18.92
2023-02-15T02:01:08.748Z,18.75
2023-02-15T02:03:55.597Z,18.73
2023-02-15T02:06:24.670Z,18.50
2023-02-15T02:08:54.080Z,17.60
2023-02-15T02:11:21.580Z,18.33
2023-02-15T02:13:49.456Z,18.42
2023-02-15T02:16:22.836Z,18.08
2023-02-15T02:19:23.603Z,18.10
2023-02-15T02:22:05.758Z,16.85
2023-02-15T02:25:08.256Z,17.10
2023-02-15T02:27:57.045Z,17.38
2023-02-15T02:31:08.961Z,18.30
2023-02-15T02:33:46.870Z,17.67
2023-02-15T02:36:50.509Z,19.00
2023-02-15T02:39:40.532Z,19.75
2023-02-15T02:42:15.951Z,18.42
2023-02-15T02:44:46.021Z,18.60
2023-02-15T02:47:30.138Z,17.65
2023-02-15T02:50:07.419Z,18.58
2023-02-15T02:52:44.225Z,18.83
2023-02-15T02:55:25.988Z,17.65
2023-02-15T02:57:59.058Z,19.10
2023-02-15T03:00:31.470Z,19.17
2023-02-15T03:03:06.260Z,17.83
2023-02-15T03:05:38.794Z,17.63
2023-02-15T03:08:11.125Z,17.63
2023-02-15T03:10:41.612Z,17.83
2023-02-15T03:13:09.811Z,17.52
2023-02-15T03:15:59.506Z,17.98
2023-02-15T03:18:33.613Z,16.88
2023-02-15T03:21:02.668Z,17.70
2023-02-15T03:23:31.711Z,17.63
2023-02-15T03:26:02.785Z,17.30
2023-02-15T03:29:00.077Z,18.02
2023-02-15T03:31:31.508Z,16.80
2023-02-15T03:34:07.998Z,17.65
2023-02-15T03:36:50.032Z,17.55
2023-02-15T03:39:35.183Z,17.67
2023-02-15T03:42:27.945Z,19.20
2023-02-15T03:45:00.624Z,17.55
2023-02-15T03:47:32.840Z,17.40
2023-02-15T03:50:38.698Z,16.50
2023-02-15T03:53:10.368Z,17.73
2023-02-15T03:55:37.709Z,16.40
2023-02-15T03:58:24.000Z,18.17
2023-02-15T04:01:16.451Z,16.58
2023-02-15T04:03:52.995Z,17.20
2023-02-15T04:06:20.087Z,17.70
2023-02-15T04:09:05.562Z,16.55
2023-02-15T04:11:32.634Z,15.85
2023-02-15T04:13:59.687Z,16.15
2023-02-15T04:16:28.315Z,18.25
2023-02-15T04:19:14.954Z,18.30
2023-02-15T04:22:00.311Z,17.67
2023-02-15T04:24:45.683Z,16.95
2023-02-15T04:27:12.730Z,16.80
2023-02-15T04:29:39.776Z,17.60
2023-02-15T04:32:07.865Z,17.42
2023-02-15T04:34:35.024Z,17.60
2023-02-15T04:37:02.059Z,16.38
2023-02-15T04:39:29.189Z,18.00
2023-02-15T04:41:56.243Z,17.15
2023-02-15T04:44:23.307Z,16.77
2023-02-15T04:46:50.337Z,17.40
2023-02-15T04:49:17.411Z,17.40
2023-02-15T04:51:44.513Z,16.25
2023-02-15T04:54:11.523Z,16.20
2023-02-15T04:56:40.044Z,16.90
2023-02-15T04:59:07.233Z,15.80
2023-02-15T05:01:34.286Z,16.40
2023-02-15T05:04:01.446Z,16.98
2023-02-15T05:06:28.564Z,16.65
2023-02-15T05:08:55.559Z,15.98
2023-02-15T05:11:22.863Z,16.80
2023-02-15T05:13:49.934Z,17.08
2023-02-15T05:16:17.064Z,17.23
2023-02-15T05:18:44.138Z,15.20
2023-02-15T05:21:11.404Z,17.30
2023-02-15T05:23:38.511Z,16.85
2023-02-15T05:26:24.278Z,16.90
2023-02-15T05:28:51.336Z,16.65
2023-02-15T05:31:20.374Z,15.75
2023-02-15T05:33:47.728Z,17.10
2023-02-15T05:36:15.123Z,16.92
2023-02-15T05:38:42.456Z,16.40
2023-02-15T05:41:11.489Z,16.75
2023-02-15T05:43:39.166Z,15.60
2023-02-15T05:46:07.479Z,17.35
2023-02-15T05:48:36.571Z,15.55
2023-02-15T05:51:14.396Z,15.07
2023-02-15T05:53:41.926Z,15.48
2023-02-15T05:56:11.621Z,15.93
2023-02-15T05:58:40.945Z,15.38
2023-02-15T06:01:12.731Z,15.43
2023-02-15T06:03:40.525Z,16.95
2023-02-15T06:06:08.007Z,15.63
2023-02-15T06:08:36.687Z,15.52
2023-02-15T06:11:04.562Z,15.40
2023-02-15T06:13:32.535Z,15.50
2023-02-15T06:16:00.161Z,14.70
2023-02-15T06:18:27.538Z,14.50
2023-02-15T06:20:54.644Z,16.17
2023-02-15T06:23:21.751Z,16.38
2023-02-15T06:25:48.812Z,14.98
2023-02-15T06:28:15.895Z,16.98
2023-02-15T06:30:42.988Z,18.42
2023-02-15T06:33:10.093Z,16.05
2023-02-15T06:35:37.189Z,16.75
2023-02-15T06:38:05.000Z,16.80
2023-02-15T06:40:32.047Z,17.17
2023-02-15T06:42:59.129Z,15.07
2023-02-15T06:45:26.123Z,15.75
2023-02-15T06:47:53.201Z,16.17
2023-02-15T06:50:20.444Z,16.27
2023-02-15T06:52:47.527Z,14.98
2023-02-15T06:55:14.553Z,16.17
2023-02-15T06:57:42.124Z,14.75
2023-02-15T07:00:09.648Z,15.40
2023-02-15T07:02:36.742Z,14.20
2023-02-15T07:05:06.281Z,14.50
2023-02-15T07:07:33.585Z,13.50
2023-02-15T07:10:00.645Z,13.32
2023-02-15T07:12:42.605Z,14.75
2023-02-15T07:15:12.168Z,13.27
2023-02-15T07:17:39.742Z,13.70
2023-02-15T07:20:13.131Z,14.18
2023-02-15T07:22:40.482Z,14.98
2023-02-15T07:25:09.705Z,15.63
2023-02-15T07:27:38.834Z,13.68
2023-02-15T07:30:08.213Z,14.07
2023-02-15T07:32:35.647Z,14.63
2023-02-15T07:35:03.177Z,13.50
2023-02-15T07:37:30.261Z,13.68
2023-02-15T07:39:57.581Z,13.32
2023-02-15T07:42:24.892Z,15.18
2023-02-15T07:44:53.994Z,15.27
2023-02-15T07:47:21.068Z,13.35
2023-02-15T07:49:50.473Z,13.73
2023-02-15T07:52:17.523Z,13.60
2023-02-15T07:54:44.538Z,15.73
2023-02-15T07:57:11.570Z,14.23
2023-02-15T07:59:38.635Z,12.77
2023-02-15T08:02:11.561Z,13.27
2023-02-15T08:04:38.845Z,13.35
2023-02-15T08:07:06.281Z,14.15
2023-02-15T08:09:33.605Z,12.05
2023-02-15T08:12:00.864Z,12.38
2023-02-15T08:14:29.075Z,13.25
2023-02-15T08:17:00.629Z,12.73
2023-02-15T08:19:36.876Z,12.07
2023-02-15T08:22:06.842Z,12.90
2023-02-15T08:24:38.546Z,12.48
2023-02-15T08:27:09.957Z,12.40
2023-02-15T08:29:38.992Z,12.05
2023-02-15T08:32:11.510Z,11.52
2023-02-15T08:34:42.245Z,11.65
2023-02-15T08:37:09.612Z,11.75
2023-02-15T08:39:36.902Z,10.50
2023-02-15T08:42:04.991Z,11.30
2023-02-15T08:44:32.417Z,11.13
2023-02-15T08:47:05.139Z,10.65
2023-02-15T08:49:32.899Z,10.98
2023-02-15T08:52:00.973Z,12.13
2023-02-15T08:54:28.200Z,11.95
2023-02-15T08:56:55.452Z,11.20
2023-02-15T08:59:24.606Z,10.82
2023-02-15T09:01:54.090Z,10.52
2023-02-15T09:04:22.796Z,10.32
2023-02-15T09:06:51.015Z,10.80
2023-02-15T09:09:19.556Z,10.50
2023-02-15T09:11:55.831Z,11.02
2023-02-15T09:14:27.571Z,11.35
2023-02-15T09:16:55.290Z,11.95
2023-02-15T09:19:23.409Z,10.38
2023-02-15T09:21:50.841Z,10.55
2023-02-15T09:24:19.152Z,11.05
2023-02-15T09:26:48.409Z,10.65
2023-02-15T09:29:17.800Z,10.23
2023-02-15T09:31:50.180Z,10.65
2023-02-15T09:34:19.931Z,10.32
2023-02-15T09:36:48.002Z,10.10
2023-02-15T09:39:18.343Z,10.48
2023-02-15T09:42:05.894Z,10.45
2023-02-15T09:44:42.393Z,10.15
2023-02-15T09:47:23.618Z,10.32
2023-02-15T09:50:03.455Z,10.82
2023-02-15T09:52:33.543Z,10.27
2023-02-15T09:55:15.993Z,9.90
2023-02-15T09:57:58.094Z,10.95
2023-02-15T10:00:50.729Z,10.20
2023-02-15T10:03:35.823Z,9.68
2023-02-15T10:06:22.168Z,11.55
2023-02-15T10:09:26.372Z,10.77
2023-02-15T10:12:11.765Z,10.32
2023-02-15T10:15:12.822Z,10.52
2023-02-15T10:18:17.181Z,10.07
2023-02-15T10:21:11.461Z,10.95
2023-02-15T10:24:00.403Z,10.13
2023-02-15T10:26:45.244Z,10.55
2023-02-15T10:29:36.007Z,10.55
2023-02-15T10:32:23.092Z,9.93
2023-02-15T10:35:18.718Z,10.18
2023-02-15T10:38:18.418Z,10.43
2023-02-15T10:41:04.830Z,9.15
2023-02-15T10:43:51.014Z,10.18
2023-02-15T10:46:28.134Z,10.30
2023-02-15T10:49:13.673Z,10.32
2023-02-15T10:52:11.457Z,10.18
2023-02-15T10:54:44.691Z,10.55
2023-02-15T10:57:21.552Z,10.13
2023-02-15T11:00:12.876Z,10.23
2023-02-15T11:03:02.562Z,9.85
2023-02-15T11:05:44.758Z,10.32
2023-02-15T11:08:15.220Z,9.88
2023-02-15T11:11:10.313Z,10.50
2023-02-15T11:13:48.723Z,9.88
2023-02-15T11:16:30.727Z,10.15
2023-02-15T11:19:10.282Z,10.63
2023-02-15T11:21:45.474Z,10.18
2023-02-15T11:24:15.878Z,10.43
2023-02-15T11:26:47.885Z,10.60
2023-02-15T11:29:26.610Z,11.00
2023-02-15T11:32:00.999Z,10.20
2023-02-15T11:34:34.842Z,9.15
2023-02-15T11:37:16.903Z,10.48
2023-02-15T11:39:45.521Z,9.65
2023-02-15T11:42:16.651Z,10.15
2023-02-15T11:44:57.950Z,9.85
2023-02-15T11:47:25.354Z,10.00
2023-02-15T11:49:52.455Z,9.98
2023-02-15T11:52:20.067Z,10.15
2023-02-15T11:54:53.513Z,10.50
2023-02-15T11:57:41.522Z,10.38
2023-02-15T12:00:16.093Z,10.50
2023-02-15T12:02:51.570Z,10.88
2023-02-15T12:05:20.841Z,9.93
2023-02-15T12:07:59.044Z,9.82
2023-02-15T12:11:06.559Z,10.23
2023-02-15T12:13:33.930Z,9.70
2023-02-15T12:16:09.330Z,10.40
2023-02-15T12:18:41.595Z,10.73
2023-02-15T12:21:15.989Z,10.65
2023-02-15T12:23:49.589Z,10.30
2023-02-15T12:26:35.854Z,10.18
2023-02-15T12:29:14.222Z,10.63
2023-02-15T12:31:46.044Z,10.77
2023-02-15T12:34:26.331Z,10.80
2023-02-15T12:36:59.117Z,10.98
2023-02-15T12:39:31.766Z,10.98
2023-02-15T12:42:03.066Z,10.55
2023-02-15T12:44:35.479Z,11.02
2023-02-15T12:47:17.508Z,11.13
2023-02-15T12:49:48.693Z,11.13
2023-02-15T12:52:18.875Z,10.82
2023-02-15T12:54:45.998Z,10.63
2023-02-15T12:57:26.386Z,10.95
2023-02-15T12:59:59.444Z,11.63
2023-02-15T13:02:37.586Z,11.38
2023-02-15T13:05:19.533Z,11.32
2023-02-15T13:07:56.262Z,11.27
2023-02-15T13:10:25.719Z,10.90
2023-02-15T13:12:55.337Z,9.95
2023-02-15T13:15:35.643Z,10.93
2023-02-15T13:18:03.881Z,11.55
2023-02-15T13:20:32.886Z,11.23
2023-02-15T13:23:06.232Z,12.07
2023-02-15T13:25:41.872Z,11.40
2023-02-15T13:28:15.678Z,11.00
2023-02-15T13:30:50.208Z,11.27
2023-02-15T13:33:38.089Z,11.30
2023-02-15T13:36:21.795Z,10.93
2023-02-15T13:39:03.472Z,11.40
2023-02-15T13:41:45.498Z,11.73
2023-02-15T13:44:39.752Z,11.45
2023-02-15T13:47:25.346Z,11.10
2023-02-15T13:50:02.030Z,12.05
2023-02-15T13:52:31.023Z,11.82
2023-02-15T13:55:25.094Z,11.10
2023-02-15T13:58:23.318Z,11.35
2023-02-15T14:01:23.816Z,11.80
2023-02-15T14:04:12.238Z,12.35
2023-02-15T14:06:58.611Z,12.13
2023-02-15T14:09:56.341Z,11.13
2023-02-15T14:12:23.299Z,11.75
2023-02-15T14:15:13.434Z,11.25
2023-02-15T14:17:49.038Z,11.70
2023-02-15T14:20:54.652Z,10.85
2023-02-15T14:23:50.247Z,11.23
2023-02-15T14:26:55.908Z,11.65
2023-02-15T14:29:54.680Z,10.90
2023-02-15T14:32:42.200Z,10.93
2023-02-15T14:35:17.975Z,10.80
2023-02-15T14:38:06.926Z,11.77
2023-02-15T14:41:04.273Z,12.00
2023-02-15T14:43:59.598Z,11.15
2023-02-15T14:49:34.085Z,11.15
2023-02-15T14:52:08.278Z,9.98
2023-02-15T14:57:02.351Z,10.65
2023-02-15T14:59:59.903Z,10.75
2023-02-15T15:02:47.862Z,10.05
2023-02-15T15:05:34.462Z,10.40
2023-02-15T15:08:03.736Z,11.10
2023-02-15T15:10:38.340Z,11.00
2023-02-15T15:13:33.628Z,10.88
2023-02-15T15:16:32.627Z,10.88
2023-02-15T15:19:00.882Z,10.90
2023-02-15T15:21:49.688Z,11.18
2023-02-15T15:24:38.848Z,11.15
2023-02-15T15:27:41.873Z,11.15
2023-02-15T15:30:15.273Z,10.25
2023-02-15T15:32:46.673Z,11.60
2023-02-15T15:36:00.945Z,11.00
2023-02-15T15:39:00.451Z,11.13
2023-02-15T15:41:46.656Z,11.68
2023-02-15T15:44:44.552Z,12.10
2023-02-15T15:47:44.857Z,10.45
2023-02-15T15:50:21.294Z,11.32
2023-02-15T15:52:56.040Z,11.05
2023-02-15T15:55:28.040Z,11.05
2023-02-15T15:57:59.602Z,11.07
2023-02-15T16:00:50.598Z,11.40
2023-02-15T16:03:29.244Z,11.10
2023-02-15T16:05:57.469Z,11.95
2023-02-15T16:08:38.461Z,12.52
2023-02-15T16:11:23.964Z,11.18
2023-02-15T16:13:53.119Z,11.10
2023-02-15T16:16:29.579Z,12.30
2023-02-15T16:19:00.790Z,11.43
2023-02-15T16:21:35.692Z,11.98
2023-02-15T16:24:14.972Z,11.82
2023-02-15T16:27:08.305Z,11.00
2023-02-15T16:29:35.865Z,11.57
2023-02-15T16:32:06.869Z,11.50
2023-02-15T16:34:34.532Z,11.18
2023-02-15T16:37:16.015Z,10.90
2023-02-15T16:39:44.615Z,11.38
2023-02-15T16:42:13.522Z,11.95
2023-02-15T16:44:41.607Z,11.57
2023-02-15T16:47:31.672Z,11.82
2023-02-15T16:50:02.419Z,11.57
2023-02-15T16:52:30.158Z,11.77
2023-02-15T16:55:04.559Z,12.57
2023-02-15T16:57:35.487Z,11.85
2023-02-15T17:00:07.270Z,11.77
2023-02-15T17:02:56.478Z,11.40
2023-02-15T17:05:23.843Z,11.02
2023-02-15T17:08:07.174Z,12.05
2023-02-15T17:10:37.603Z,12.02
2023-02-15T17:13:11.918Z,11.52
2023-02-15T17:18:20.736Z,11.95
2023-02-15T17:20:49.679Z,11.70
2023-02-15T17:23:42.880Z,12.00
2023-02-15T17:26:44.166Z,12.65
2023-02-15T17:29:33.989Z,11.60
2023-02-15T17:32:03.017Z,11.73
2023-02-15T17:34:45.685Z,12.98
2023-02-15T17:37:31.017Z,12.27
2023-02-15T17:40:00.628Z,11.98
2023-02-15T17:42:27.834Z,12.35
2023-02-15T17:44:54.836Z,11.90
2023-02-15T17:47:26.063Z,12.65
2023-02-15T17:49:55.250Z,11.52
2023-02-15T17:52:22.530Z,10.85
2023-02-15T17:55:07.966Z,11.70
2023-02-15T17:57:35.113Z,12.70
2023-02-15T18:00:21.999Z,12.25
2023-02-15T18:03:07.538Z,12.82
2023-02-15T18:05:53.098Z,12.45
2023-02-15T18:08:45.418Z,13.10
2023-02-15T18:11:31.725Z,12.85
2023-02-15T18:14:02.020Z,12.75
2023-02-15T18:16:43.606Z,12.57
2023-02-15T18:19:16.676Z,11.82
2023-02-15T18:21:45.120Z,11.57
2023-02-15T18:24:30.575Z,12.10
2023-02-15T18:26:57.705Z,10.80
2023-02-15T18:29:24.784Z,12.18
2023-02-15T18:31:57.983Z,12.32
2023-02-15T18:34:35.967Z,13.73
2023-02-15T18:37:06.097Z,13.55
2023-02-15T18:39:47.846Z,12.18
2023-02-15T18:42:29.256Z,12.85
2023-02-15T18:45:01.180Z,12.35
2023-02-15T18:47:28.167Z,12.27
2023-02-15T18:49:55.370Z,12.20
2023-02-15T18:52:24.883Z,12.63
2023-02-15T18:54:55.309Z,11.93
2023-02-15T18:57:22.409Z,12.70
2023-02-15T18:59:49.473Z,12.80
2023-02-15T19:02:19.226Z,13.07
2023-02-15T19:04:50.996Z,11.95
2023-02-15T19:07:25.010Z,13.88
2023-02-15T19:09:56.176Z,12.82
2023-02-15T19:12:23.463Z,13.48
2023-02-15T19:14:53.112Z,15.18
2023-02-15T19:17:21.912Z,13.07
2023-02-15T19:19:50.474Z,12.48
2023-02-15T19:22:25.229Z,13.30
2023-02-15T19:24:54.052Z,12.70
2023-02-15T19:27:26.438Z,13.80
2023-02-15T19:29:55.061Z,12.75
2023-02-15T19:32:22.326Z,12.68
2023-02-15T19:34:49.403Z,13.50
2023-02-15T19:37:34.612Z,14.00
2023-02-15T19:40:04.951Z,13.80
2023-02-15T19:42:33.321Z,13.63
2023-02-15T19:45:00.790Z,14.07
2023-02-15T19:47:31.052Z,13.23
2023-02-15T19:50:03.785Z,13.73
2023-02-15T19:52:31.130Z,14.32
2023-02-15T19:54:58.189Z,13.95
2023-02-15T19:57:25.311Z,13.70
2023-02-15T19:59:52.542Z,13.40
2023-02-15T20:02:20.413Z,13.75
2023-02-15T20:04:47.607Z,13.52
2023-02-15T20:07:27.774Z,13.52
2023-02-15T20:09:55.619Z,13.73
2023-02-15T20:12:25.462Z,13.55
2023-02-15T20:14:54.535Z,13.57
2023-02-15T20:17:21.685Z,13.30
2023-02-15T20:19:48.870Z,13.30
2023-02-15T20:22:27.807Z,13.95
2023-02-15T20:24:57.125Z,14.02
2023-02-15T20:27:26.622Z,14.90
2023-02-15T20:29:57.004Z,13.82
2023-02-15T20:32:24.652Z,13.50
2023-02-15T20:34:53.762Z,14.02
2023-02-15T20:37:29.072Z,14.88
2023-02-15T20:39:56.660Z,23.33
2023-02-15T20:42:23.954Z,20.80
2023-02-15T20:44:52.294Z,15.07
2023-02-15T20:47:20.340Z,13.77
2023-02-15T20:49:47.471Z,14.60
2023-02-15T20:52:21.407Z,14.98
2023-02-15T20:54:49.451Z,14.80
2023-02-15T20:57:19.885Z,15.25
2023-02-15T20:59:47.018Z,14.38
2023-02-15T21:02:23.616Z,15.32
2023-02-15T21:04:53.318Z,14.85
2023-02-15T21:07:22.394Z,15.93
2023-02-15T21:09:55.152Z,15.07
2023-02-15T21:12:24.375Z,15.57
2023-02-15T21:14:51.528Z,15.57
2023-02-15T21:17:20.021Z,14.80
2023-02-15T21:19:47.138Z,14.82
2023-02-15T21:22:15.802Z,14.95
2023-02-15T21:24:51.957Z,15.50
2023-02-15T21:27:19.300Z,15.93
2023-02-15T21:29:46.330Z,14.10
2023-02-15T21:32:13.511Z,15.50
2023-02-15T21:34:41.007Z,16.83
2023-02-15T21:37:28.029Z,15.32
2023-02-15T21:39:55.395Z,14.95
2023-02-15T21:42:41.225Z,15.18
2023-02-15T21:45:37.438Z,16.00
2023-02-15T21:48:05.280Z,15.00
2023-02-15T21:50:50.854Z,15.80
2023-02-15T21:53:30.407Z,15.73
2023-02-15T21:56:01.862Z,15.85
2023-02-15T21:58:32.657Z,15.30
2023-02-15T22:01:01.008Z,16.25
2023-02-15T22:03:33.582Z,16.08
2023-02-15T22:06:01.062Z,14.63
2023-02-15T22:08:28.163Z,15.80
2023-02-15T22:10:56.750Z,15.68
2023-02-15T22:13:31.712Z,16.08
2023-02-15T22:15:59.401Z,14.40
2023-02-15T22:18:33.922Z,15.05
2023-02-15T22:21:02.899Z,15.60
2023-02-15T22:23:30.448Z,15.20
2023-02-15T22:26:22.740Z,16.52
2023-02-15T22:28:50.183Z,16.23
2023-02-15T22:31:22.380Z,15.88
2023-02-15T22:33:51.347Z,16.20
2023-02-15T22:36:28.913Z,16.27
2023-02-15T22:38:57.233Z,15.18
2023-02-15T22:41:30.898Z,17.13
2023-02-15T22:43:58.307Z,15.05
2023-02-15T22:46:26.715Z,15.20
2023-02-15T22:48:54.109Z,15.07
2023-02-15T22:51:24.062Z,16.20
2023-02-15T22:53:54.112Z,17.00
2023-02-15T22:56:46.872Z,16.67
2023-02-15T22:59:34.410Z,16.48
2023-02-15T23:02:03.619Z,16.27
2023-02-15T23:04:30.879Z,16.00
2023-02-15T23:07:00.874Z,16.30
2023-02-15T23:09:28.217Z,16.83
2023-02-15T23:11:55.519Z,15.73
2023-02-15T23:14:23.105Z,16.80
2023-02-15T23:16:52.436Z,17.17
2023-02-15T23:19:21.750Z,15.70
2023-02-15T23:21:49.105Z,16.30
2023-02-15T23:24:29.517Z,15.93
2023-02-15T23:27:20.229Z,16.20
2023-02-15T23:29:47.502Z,18.40
2023-02-15T23:32:15.509Z,16.80
2023-02-15T23:34:43.223Z,16.50
2023-02-15T23:37:14.518Z,17.13
2023-02-15T23:40:00.328Z,15.95
2023-02-15T23:42:30.822Z,16.77
2023-02-15T23:44:58.497Z,16.88
2023-02-15T23:48:03.212Z,16.17
2023-02-15T23:50:30.900Z,17.10
2023-02-15T23:52:58.404Z,16.90
2023-02-15T23:55:37.270Z,15.77
2023-02-15T23:58:06.558Z,17.33
